Tocumen, Panama

1:44 PM EST on October 17, 2018 (GMT -0500)
Tocumen International | | Change Station

Elev 36 ft 9.05 °N, 79.37 °W | Updated 44 minutes ago

Scattered Clouds
Scattered Clouds
81 °F
Feels Like 86 °F
N
7
Wind Variable Wind from SSE

Today
High -- | Low -- °F
--% Chance of Precip.
Yesterday
High -- | Low -- °F
Precip. -- in
Pressure 29.83 in
Visibility 5.6 miles
Clouds Few 800 ft
Scattered Clouds 1600 ft
Scattered Clouds 8000 ft
Heat Index 86 °F
Dew Point 75 °F
Humidity 84%
Rainfall 0.00 in
Snow Depth Not available.
6:05 AM 6:00 PM
First Quarter, 60% visible
METAR MPTO 171800Z 15006KT 9000 VCSH FEW008 SCT016CB SCT080 27/24 Q1010 NOSIG
Pressure 29.83 in
Visibility 5.6 miles
Clouds Few 800 ft
Scattered Clouds 1600 ft
Scattered Clouds 8000 ft
Heat Index 86 °F
Dew Point 75 °F
Humidity 84%
Rainfall 0.00 in
Snow Depth Not available.
6:05 AM 6:00 PM
First Quarter, 60% visible
METAR MPTO 171800Z 15006KT 9000 VCSH FEW008 SCT016CB SCT080 27/24 Q1010 NOSIG

Get Severe Weather Alerts

Thanks for signing up!

Be on the lookout for a verification email in your inbox.

You'll start receiving the daily forecast at 6 AM.

×

10-Day Weather Forecast

No radar image for this location.
×

Almanac

Astronomy

Oct. 17, 2018 Rise Set
Actual Time
Civil Twilight
Nautical Twilight
Astronomical Twilight
Moon
Length of Visible Light
Length of Day
Tomorrow will be .
, % of the Moon is Illuminated

Today's Extremes

Country Highs Country Lows

Community

WunderPhotos

Category 6

Welcome to Category 6. This is the collective home for Weather Underground's featured writeups by Dr. Jeff Masters (right), Bob Henson (left), Chris Burt, and other regular contributors.

Nearby

Air Quality

  Air Quality AQ Index Pollutant
Not available.

Snow Depth

Station Depth Elevation

Earthquake Activity

City Distance Mag. Time & Date
Minimum magnitude displayed is 2.5.

Coastal Water Temperatures

Place Temperature

Stations

Nearby Weather Stations

Station Location Temp. Windchill Dew Point Humidity Wind Precip. Elev Updated Type